KMEM/MEM METAR and TAF weather

Enter ICAO airport designator
Station Type Date Time Source
KMEM METAR 2022/06/25 22:54 UTC NOAA

KMEM 252254Z 03006KT 10SM CLR 38/17 A2997 RMK AO2 SLP142 T03780172


Station Type Date Time Source
KMEM Decoded METAR 2022/06/25 22:54 UTC NOAA

MEMPHIS INTERNATIONAL AIRPORT , TN, United States (KMEM) 35-02N 089-59W 86M
Jun 25, 2022 - 06:54 PM EDT / 2022.06.25 2254 UTC
Wind: from the NNE (030 degrees) at 7 MPH (6 KT):0
Visibility: 10 mile(s):0
Sky conditions: clear
Temperature: 100.0 F (37.8 C)
Heat index: 101.7 F (38.7 C):1
Dew Point: 63.0 F (17.2 C)
Relative Humidity: 29%
Pressure (altimeter): 29.97 in. Hg (1014 hPa)
ob: KMEM 252254Z 03006KT 10SM CLR 38/17 A2997 RMK AO2 SLP142 T03780172
cycle: 23

Station Type Date Time Source
KMEM TAF 2022/06/25 21:04 UTC NOAA

TAF
AMD KMEM 252102Z 2521/2624 VRB05KT P6SM SKC
FM261800 34006KT 6SM -SHRA VCTS SCT060CB BKN100
FM262100 01010KT 6SM -SHRA VCTS SCT030CB BKN050

Example: see airport list